Hovedside
METAR-TAF:

METAR-TAF

Lufthavner :

Sandane lufthamn. Anda

Sandane, Norge

breddegrad: 61-50N, lengdegrad: 006-07E, høyde over havet: 6 m

Gjeldene værobservasjon

Denne rapporten ble laget for 33 minutter siden, klokken 15:50 UTC
Vind 9 kt fra Sør-sørvest, skiftende mellom Sør-sørøst og Vest-sørvest
Temperatur 23°C
Luftfuktighet 31%
Trykk 1016 hPa
Sikt 10 km eller mer
Få skyer i en høyde av 7000 ft

METAR: ENSD 241550Z 20009KT 150V240 9999 FEW070 23/05 Q1016 RMK WIND RWY 26 28006KT WIND 1140FT 23006KT

Tid: 18:23 (16:23 UTC)

Varsel

Denne rapporten ble laget for 2 timer og 23 minutter siden, klokken 14:00 UTC
Varsel gyldig fra 24. klokken 15 UTC til 24. klokken 21 UTC
Vind 8 kt fra Sør-sørvest
Sikt 10 km eller mer
Spredte skyer i en høyde av 7000 ft

TAF: ENSD 241400Z 2415/2421 20008KT 9999 SCT070

Værobservasjoner og værvarsel for over 4000 flyplasser (METAR- og TAF-rapporter).

Tilgjengelige stasjoner er representert av de røde og gule prikkene på kartet.

Hold musepekeren over prikken for å se navnet på stasjonen.

Klikk så for å se værobservasjoner og -varsler.

For å forandre kartet kan du klikke på den grønne knappen med svart kryss for å zoome inn, på den grønne knappen med strek for å zoome ut, eller på de grønne pilene for å se tilstøtende kart.


METAR-TAF: